East Gulf, West Virginia
Current Conditions -  °F | °C
As of 1:13 PM on Friday 31 Oct 2014 (Local Time) from KBKW Reporting Station
Overcast Overcast  
Wind Chill: 42°   Ceiling: 2500
Heat Index: 45°   Visibility: 10mi
Dew Point: 34°   Wind: 6mph
Humidity: 65%   Direction: 230°SW
Pressure: 29.87"   Gusts: NA
Location:  37.6245°N, 81.2855°W
Report Text: KBKW 311713Z AUTO 23005KT 10SM BKN025 OVC045 07/01 A2987 RMK AO2 T00720011 TSNO
Loading
Personal Weather Stations






























Interactive Weather Map
Tropical Storm Tracking
New forecast layout! Learn more

10-Day Weather Forecast

Advertisements
Track Severe Weather on mobile